Time;durP1;ratioP1;P1;durP2;ratioP2;P2;SDS_P1;SDS_P2;PMS_P1;PMS_P2;Temp;Humidity;BMP_temperature;BMP_pressure;BME280_temperature;BME280_humidity;BME280_pressure;Samples;Min_cycle;Max_cycle;Signal;HPM_P1;HPM_P2
2021/07/17 00:00:27;;;;;;;9.55;7.10;;;17.10;99.90;;;;;;4981999;28;20668;-68
2021/07/17 00:02:54;;;;;;;11.45;7.30;;;17.10;99.90;;;;;;4981889;28;20055;-64
2021/07/17 00:05:22;;;;;;;9.02;7.50;;;17.10;99.90;;;;;;4983484;28;20043;-64
2021/07/17 00:07:49;;;;;;;8.02;7.32;;;17.10;99.90;;;;;;4980187;28;20108;-64
2021/07/17 00:10:25;;;;;;;14.15;8.82;;;17.00;99.90;;;;;;4982706;28;20437;-64
2021/07/17 00:12:52;;;;;;;9.95;7.65;;;17.00;99.90;;;;;;4986699;28;20492;-64
2021/07/17 00:15:23;;;;;;;10.45;7.38;;;17.00;99.90;;;;;;4984213;28;20492;-67
2021/07/17 00:17:51;;;;;;;11.50;8.55;;;17.00;99.90;;;;;;4982647;28;20038;-63
2021/07/17 00:20:18;;;;;;;10.73;7.75;;;16.90;99.90;;;;;;4985886;28;20074;-64
2021/07/17 00:22:45;;;;;;;10.73;6.68;;;16.90;99.90;;;;;;4982834;28;20062;-64
2021/07/17 00:25:16;;;;;;;8.68;7.07;;;16.80;99.90;;;;;;4984516;28;20536;-64
2021/07/17 00:27:43;;;;;;;9.20;7.47;;;16.80;99.90;;;;;;4981281;28;20038;-64
2021/07/17 00:30:11;;;;;;;9.13;7.45;;;16.80;99.90;;;;;;4985073;28;20590;-64
2021/07/17 00:32:38;;;;;;;10.98;7.75;;;16.70;99.90;;;;;;4983198;28;20054;-64
2021/07/17 00:35:07;;;;;;;8.27;7.18;;;16.70;99.90;;;;;;4982443;28;20054;-64
2021/07/17 00:37:35;;;;;;;9.55;7.32;;;16.70;99.90;;;;;;4985217;28;20561;-65
2021/07/17 00:40:04;;;;;;;13.98;8.18;;;16.70;99.90;;;;;;4985133;28;20046;-67
2021/07/17 00:42:32;;;;;;;9.07;8.20;;;16.70;99.90;;;;;;4981240;28;20050;-64
2021/07/17 00:44:59;;;;;;;10.23;8.85;;;16.70;99.90;;;;;;4984551;28;20105;-65
2021/07/17 00:47:30;;;;;;;9.80;7.35;;;16.70;99.90;;;;;;4979971;28;20054;-66
2021/07/17 00:49:57;;;;;;;11.68;8.15;;;16.70;99.90;;;;;;4985605;28;20527;-67
2021/07/17 00:52:24;;;;;;;16.30;8.63;;;16.70;99.90;;;;;;4984821;28;20081;-69
2021/07/17 00:54:52;;;;;;;7.88;7.15;;;16.60;99.90;;;;;;4982462;28;20527;-65
2021/07/17 00:57:22;;;;;;;10.32;7.82;;;16.60;99.90;;;;;;4978859;28;20058;-69
2021/07/17 00:59:51;;;;;;;14.63;9.40;;;16.60;99.90;;;;;;4984068;28;20179;-65
2021/07/17 01:02:22;;;;;;;11.10;8.35;;;16.60;99.90;;;;;;4986009;28;20104;-64
2021/07/17 01:04:49;;;;;;;10.30;9.10;;;16.50;99.90;;;;;;4978679;28;20055;-67
2021/07/17 01:07:17;;;;;;;13.77;10.02;;;16.50;99.90;;;;;;4980723;28;20065;-64
2021/07/17 01:09:44;;;;;;;10.82;8.57;;;16.60;99.90;;;;;;4980139;28;20053;-64
2021/07/17 01:12:11;;;;;;;10.35;7.43;;;16.50;99.90;;;;;;4981769;28;20042;-65
2021/07/17 01:14:39;;;;;;;12.45;8.05;;;16.50;99.90;;;;;;4986337;28;20046;-64
2021/07/17 01:17:06;;;;;;;11.18;8.52;;;16.50;99.90;;;;;;4982682;28;20048;-70
2021/07/17 01:19:33;;;;;;;10.43;9.00;;;16.50;99.90;;;;;;4981520;28;20054;-69
2021/07/17 01:22:00;;;;;;;9.38;8.00;;;16.50;99.90;;;;;;4984752;28;20713;-65
2021/07/17 01:24:28;;;;;;;10.38;8.95;;;16.40;99.90;;;;;;4984944;28;20506;-65
2021/07/17 01:26:55;;;;;;;9.23;8.32;;;16.40;99.90;;;;;;4981010;28;20058;-68
2021/07/17 01:29:22;;;;;;;9.40;7.78;;;16.30;99.90;;;;;;4976058;28;20112;-67
2021/07/17 01:31:49;;;;;;;11.85;8.30;;;16.30;99.90;;;;;;4979848;28;20050;-66
2021/07/17 01:34:17;;;;;;;12.40;8.63;;;16.30;99.90;;;;;;4981539;28;20487;-65
2021/07/17 01:36:44;;;;;;;11.27;9.05;;;16.20;99.90;;;;;;4980262;28;20113;-71
2021/07/17 01:39:11;;;;;;;11.48;8.55;;;16.20;99.90;;;;;;4982614;28;20073;-65
2021/07/17 01:41:38;;;;;;;13.10;8.45;;;16.20;99.90;;;;;;4980424;28;20074;-71
2021/07/17 01:44:06;;;;;;;12.13;9.02;;;16.20;99.90;;;;;;4979837;28;20464;-66
2021/07/17 01:46:33;;;;;;;11.80;9.68;;;16.20;99.90;;;;;;4982617;28;20042;-68
2021/07/17 01:49:00;;;;;;;10.95;8.40;;;16.10;99.90;;;;;;4980690;28;20946;-64
2021/07/17 01:51:27;;;;;;;9.35;8.05;;;16.20;99.90;;;;;;4980735;28;20096;-66
2021/07/17 01:53:56;;;;;;;11.52;9.93;;;16.10;99.90;;;;;;4979170;28;20389;-72
2021/07/17 01:56:25;;;;;;;10.05;9.05;;;16.10;99.90;;;;;;4980323;28;20050;-68
2021/07/17 01:58:53;;;;;;;13.48;9.18;;;16.10;99.90;;;;;;4981355;28;20440;-67
2021/07/17 02:01:25;;;;;;;9.80;8.90;;;16.10;99.90;;;;;;4969862;28;20130;-64
2021/07/17 02:03:53;;;;;;;11.30;9.15;;;16.10;99.90;;;;;;4982276;28;20469;-64
2021/07/17 02:06:28;;;;;;;13.48;9.07;;;16.10;99.90;;;;;;4984016;28;20459;-64
2021/07/17 02:08:56;;;;;;;13.80;8.55;;;16.00;99.90;;;;;;4982835;28;20042;-67
2021/07/17 02:11:23;;;;;;;13.43;10.20;;;16.00;99.90;;;;;;4974815;28;20050;-64
2021/07/17 02:13:52;;;;;;;11.57;9.50;;;16.00;99.90;;;;;;4987640;28;20683;-66
2021/07/17 02:16:21;;;;;;;11.85;9.90;;;16.00;99.90;;;;;;4978366;28;20530;-66
2021/07/17 02:18:48;;;;;;;11.52;8.35;;;16.00;99.90;;;;;;4983626;28;20054;-65
2021/07/17 02:21:16;;;;;;;7.90;7.13;;;16.00;99.90;;;;;;4977535;28;20093;-70
2021/07/17 02:23:44;;;;;;;14.18;11.43;;;16.00;99.90;;;;;;4980383;28;20043;-65
2021/07/17 02:26:11;;;;;;;10.38;9.27;;;16.00;99.90;;;;;;4981847;28;20066;-69
2021/07/17 02:28:39;;;;;;;10.90;8.07;;;16.00;99.90;;;;;;4985104;28;20050;-64
2021/07/17 02:31:06;;;;;;;12.60;8.93;;;16.00;99.90;;;;;;4978988;28;20061;-64
2021/07/17 02:33:34;;;;;;;10.68;8.32;;;16.00;99.90;;;;;;4998446;28;20408;-70
2021/07/17 02:36:01;;;;;;;11.98;8.77;;;16.00;99.90;;;;;;4981109;28;20444;-69
2021/07/17 02:38:28;;;;;;;9.95;8.20;;;16.00;99.90;;;;;;4979625;28;20480;-64
2021/07/17 02:40:55;;;;;;;9.80;8.18;;;16.00;99.90;;;;;;4982793;28;20177;-66
2021/07/17 02:43:22;;;;;;;9.63;7.10;;;16.00;99.90;;;;;;4980510;28;20702;-66
2021/07/17 02:45:49;;;;;;;9.20;8.15;;;16.00;99.90;;;;;;4982133;28;20125;-64
2021/07/17 02:48:16;;;;;;;11.02;9.32;;;16.00;99.90;;;;;;4981199;28;20101;-66
2021/07/17 02:50:43;;;;;;;11.93;8.95;;;16.00;99.90;;;;;;4983302;28;20103;-65
2021/07/17 02:53:10;;;;;;;13.13;9.02;;;16.00;99.90;;;;;;4980368;28;20404;-67
2021/07/17 02:55:37;;;;;;;9.88;8.88;;;16.00;99.90;;;;;;4982229;28;20070;-66
2021/07/17 02:58:04;;;;;;;9.77;8.63;;;16.00;99.90;;;;;;4983887;28;20054;-66
2021/07/17 03:00:34;;;;;;;10.38;8.52;;;16.00;99.90;;;;;;4984752;28;20042;-66
2021/07/17 03:03:02;;;;;;;8.50;7.18;;;16.00;99.90;;;;;;4980596;28;20046;-66
2021/07/17 03:05:30;;;;;;;9.55;8.27;;;16.10;99.90;;;;;;4978035;28;20552;-69
2021/07/17 03:07:57;;;;;;;13.65;8.30;;;16.10;99.90;;;;;;4981385;28;20164;-64
2021/07/17 03:10:25;;;;;;;11.82;9.32;;;16.10;99.90;;;;;;4998501;28;20112;-64
2021/07/17 03:12:52;;;;;;;15.82;9.13;;;16.10;99.90;;;;;;4980977;28;20101;-67
2021/07/17 03:15:18;;;;;;;12.52;8.02;;;16.20;99.90;;;;;;4975007;28;20117;-66
2021/07/17 03:17:45;;;;;;;8.38;7.45;;;16.20;99.90;;;;;;4982801;28;20404;-67
2021/07/17 03:20:12;;;;;;;8.95;7.93;;;16.20;99.90;;;;;;4984671;28;20538;-65
2021/07/17 03:22:40;;;;;;;13.38;8.77;;;16.20;99.90;;;;;;4982281;28;20105;-65
2021/07/17 03:25:08;;;;;;;11.00;8.02;;;16.30;99.90;;;;;;4982696;28;20124;-68
2021/07/17 03:27:35;;;;;;;7.88;7.10;;;16.30;99.90;;;;;;4981466;28;20117;-66
2021/07/17 03:30:05;;;;;;;8.95;7.97;;;16.40;99.90;;;;;;4984397;28;20132;-65
2021/07/17 03:32:32;;;;;;;8.65;7.43;;;16.40;99.90;;;;;;4981698;28;20074;-70
2021/07/17 03:34:59;;;;;;;8.27;7.28;;;16.50;99.90;;;;;;4980612;28;20392;-72
2021/07/17 03:37:26;;;;;;;9.52;7.47;;;16.50;99.90;;;;;;4980519;28;20365;-65
2021/07/17 03:39:53;;;;;;;7.75;6.95;;;16.60;99.90;;;;;;4985612;28;20042;-67
2021/07/17 03:42:20;;;;;;;9.18;7.00;;;16.60;99.90;;;;;;4986807;28;20108;-66
2021/07/17 03:44:47;;;;;;;9.00;8.13;;;16.60;99.90;;;;;;4983709;28;20512;-64
2021/07/17 03:47:14;;;;;;;9.02;5.85;;;16.60;99.90;;;;;;4983826;28;20057;-66
2021/07/17 03:49:41;;;;;;;7.80;6.65;;;16.60;99.90;;;;;;4985737;28;20070;-68
2021/07/17 03:52:08;;;;;;;9.50;6.88;;;16.60;99.90;;;;;;4986375;28;20058;-64
2021/07/17 03:54:35;;;;;;;8.63;6.60;;;16.60;99.90;;;;;;4980612;28;20155;-66
2021/07/17 03:57:02;;;;;;;11.32;6.68;;;16.70;99.90;;;;;;4985064;28;20499;-66
2021/07/17 03:59:29;;;;;;;8.75;6.60;;;16.70;99.90;;;;;;4983926;28;20050;-71
2021/07/17 04:01:56;;;;;;;8.85;7.65;;;16.70;99.90;;;;;;4986154;28;20112;-64
2021/07/17 04:04:24;;;;;;;10.38;7.28;;;16.80;99.90;;;;;;4983272;28;20049;-64
2021/07/17 04:06:51;;;;;;;11.07;7.47;;;16.80;99.90;;;;;;4981388;28;20053;-66
2021/07/17 04:09:18;;;;;;;8.40;6.75;;;16.80;99.90;;;;;;4982203;28;20065;-66
2021/07/17 04:11:45;;;;;;;8.57;7.13;;;16.90;99.90;;;;;;4981916;28;20133;-65
2021/07/17 04:14:12;;;;;;;9.43;6.72;;;16.90;99.90;;;;;;4982118;28;20128;-65
2021/07/17 04:16:39;;;;;;;8.82;6.57;;;17.00;99.90;;;;;;4985459;28;20115;-66
2021/07/17 04:19:06;;;;;;;9.30;7.10;;;17.00;99.90;;;;;;4982932;28;20082;-65
2021/07/17 04:21:33;;;;;;;8.57;6.55;;;17.10;99.90;;;;;;4983800;28;20046;-66
2021/07/17 04:24:00;;;;;;;7.32;6.40;;;17.10;99.90;;;;;;4977512;28;20348;-66
2021/07/17 04:26:27;;;;;;;7.50;6.80;;;17.20;99.90;;;;;;4984933;28;20443;-66
2021/07/17 04:28:54;;;;;;;9.18;6.63;;;17.30;99.90;;;;;;4983745;28;20149;-70
2021/07/17 04:31:21;;;;;;;10.20;9.07;;;17.30;99.90;;;;;;4983439;28;20046;-65
2021/07/17 04:33:48;;;;;;;10.73;6.35;;;17.40;99.90;;;;;;4980257;28;20425;-65
2021/07/17 04:36:15;;;;;;;10.68;6.85;;;17.40;99.90;;;;;;4982560;28;20046;-70
2021/07/17 04:38:42;;;;;;;8.23;7.32;;;17.50;99.90;;;;;;4983702;28;20129;-64
2021/07/17 04:41:09;;;;;;;8.15;6.13;;;17.50;99.90;;;;;;4981516;28;20100;-66
2021/07/17 04:43:36;;;;;;;10.88;7.30;;;17.60;99.90;;;;;;4984053;28;20137;-64
2021/07/17 04:46:03;;;;;;;7.45;6.50;;;17.70;99.90;;;;;;4983163;28;20133;-66
2021/07/17 04:48:30;;;;;;;9.55;6.40;;;17.70;99.90;;;;;;4985021;28;20117;-70
2021/07/17 04:50:57;;;;;;;10.90;5.88;;;17.80;99.90;;;;;;4982481;28;20051;-66
2021/07/17 04:53:24;;;;;;;8.05;7.22;;;17.80;99.90;;;;;;4977184;28;20461;-65
2021/07/17 04:55:50;;;;;;;5.85;5.18;;;17.80;99.90;;;;;;4985470;28;20047;-66
2021/07/17 04:58:17;;;;;;;10.85;6.85;;;17.90;99.90;;;;;;4981739;28;20077;-67
2021/07/17 05:00:44;;;;;;;5.85;4.75;;;18.00;99.90;;;;;;4981405;28;20050;-64
2021/07/17 05:03:11;;;;;;;6.60;5.95;;;18.00;99.90;;;;;;4977407;28;20042;-64
2021/07/17 05:05:40;;;;;;;7.80;5.57;;;18.10;99.90;;;;;;4979787;28;20595;-65
2021/07/17 05:08:08;;;;;;;5.65;5.00;;;18.10;99.90;;;;;;4981671;28;20097;-65
2021/07/17 05:10:35;;;;;;;12.88;5.97;;;18.20;99.90;;;;;;4981188;28;20505;-65
2021/07/17 05:13:13;;;;;;;9.77;6.75;;;18.30;99.90;;;;;;4982340;28;20043;-65
2021/07/17 05:15:41;;;;;;;8.38;6.63;;;18.30;99.90;;;;;;4979182;28;20042;-65
2021/07/17 05:18:11;;;;;;;7.38;6.63;;;18.40;99.90;;;;;;4983475;28;20132;-66
2021/07/17 05:20:41;;;;;;;8.40;6.30;;;18.40;99.90;;;;;;4983539;28;20599;-64
2021/07/17 05:23:09;;;;;;;7.30;5.55;;;18.40;99.90;;;;;;4979744;28;20414;-64
2021/07/17 05:25:38;;;;;;;5.95;5.20;;;18.50;99.90;;;;;;4977666;28;20437;-67
2021/07/17 05:28:05;;;;;;;6.57;5.78;;;18.50;99.90;;;;;;4983825;28;20463;-66
2021/07/17 05:30:32;;;;;;;6.57;5.90;;;18.60;99.90;;;;;;4981932;28;20049;-67
2021/07/17 05:32:59;;;;;;;7.97;6.03;;;18.70;99.90;;;;;;4981768;28;20538;-68
2021/07/17 05:35:28;;;;;;;8.73;6.25;;;18.70;99.90;;;;;;4983182;28;20476;-65
2021/07/17 05:37:56;;;;;;;6.95;6.10;;;18.80;99.90;;;;;;4981439;28;20391;-69
2021/07/17 05:40:24;;;;;;;8.00;5.35;;;18.80;99.90;;;;;;4984277;28;20070;-64
2021/07/17 05:42:51;;;;;;;8.43;5.22;;;18.90;99.90;;;;;;4981605;28;20042;-64
2021/07/17 05:45:18;;;;;;;10.85;5.70;;;18.90;99.90;;;;;;4981891;28;20066;-64
2021/07/17 05:47:45;;;;;;;7.43;6.80;;;18.90;99.90;;;;;;4983099;28;20043;-66
2021/07/17 05:50:13;;;;;;;6.55;5.57;;;18.90;99.90;;;;;;4999936;28;20080;-65
2021/07/17 05:52:40;;;;;;;12.85;6.50;;;18.90;99.90;;;;;;4983608;28;20070;-66
2021/07/17 05:55:07;;;;;;;7.38;6.60;;;18.90;99.90;;;;;;4983204;28;20047;-64
2021/07/17 05:57:34;;;;;;;6.95;5.70;;;18.90;99.90;;;;;;4976938;28;20054;-65
2021/07/17 06:00:05;;;;;;;8.43;5.93;;;19.00;99.90;;;;;;4980339;28;20500;-67
2021/07/17 06:02:39;;;;;;;7.40;5.68;;;19.00;99.90;;;;;;4980881;28;20125;-64
2021/07/17 06:05:07;;;;;;;6.15;5.65;;;19.00;99.90;;;;;;4982525;28;20047;-66
2021/07/17 06:07:34;;;;;;;5.82;5.22;;;19.10;99.90;;;;;;4978639;28;20112;-67
2021/07/17 06:10:01;;;;;;;7.00;6.00;;;19.10;99.90;;;;;;4981294;28;20652;-64
2021/07/17 06:12:28;;;;;;;6.00;5.50;;;19.10;99.90;;;;;;4983563;28;20043;-65
2021/07/17 06:14:55;;;;;;;6.15;5.57;;;19.10;99.90;;;;;;4988440;28;20046;-65
2021/07/17 06:17:22;;;;;;;8.18;5.97;;;19.20;99.90;;;;;;4981855;28;20141;-71
2021/07/17 06:19:49;;;;;;;9.60;6.70;;;19.20;99.90;;;;;;4980182;28;20050;-66
2021/07/17 06:22:16;;;;;;;6.82;5.72;;;19.20;99.90;;;;;;4978057;28;20044;-67
2021/07/17 06:24:43;;;;;;;7.78;5.65;;;19.30;99.90;;;;;;4983762;28;20085;-65
2021/07/17 06:27:10;;;;;;;8.57;5.75;;;19.30;99.90;;;;;;4981807;28;20451;-65
2021/07/17 06:29:37;;;;;;;6.13;5.30;;;19.40;99.90;;;;;;4977963;28;20069;-64
2021/07/17 06:32:05;;;;;;;9.05;6.78;;;19.40;99.90;;;;;;4982884;28;20053;-66
2021/07/17 06:34:32;;;;;;;10.68;5.95;;;19.50;99.90;;;;;;4977560;28;20133;-69
2021/07/17 06:37:00;;;;;;;9.55;5.85;;;19.50;99.90;;;;;;4983369;28;20494;-66
2021/07/17 06:39:27;;;;;;;6.40;5.80;;;19.50;99.90;;;;;;4979014;28;20065;-68
2021/07/17 06:41:54;;;;;;;7.55;5.30;;;19.60;99.90;;;;;;4981761;28;20057;-67
2021/07/17 06:44:22;;;;;;;16.20;7.25;;;19.60;99.90;;;;;;4981953;28;20050;-66
2021/07/17 06:46:49;;;;;;;6.70;6.03;;;19.70;99.90;;;;;;4979688;28;20039;-64
2021/07/17 06:49:16;;;;;;;6.15;5.55;;;19.70;99.90;;;;;;4980384;28;20097;-66
2021/07/17 06:51:43;;;;;;;6.53;5.45;;;19.80;99.90;;;;;;4980517;28;20487;-64
2021/07/17 06:54:10;;;;;;;8.50;5.25;;;19.80;99.90;;;;;;4982889;28;20062;-67
2021/07/17 06:56:36;;;;;;;7.07;5.03;;;19.80;99.90;;;;;;4979720;28;20062;-66
2021/07/17 06:59:03;;;;;;;7.85;5.43;;;19.80;99.90;;;;;;4982891;28;20081;-70
2021/07/17 07:01:30;;;;;;;7.70;6.75;;;19.90;99.90;;;;;;4997682;28;20124;-65
2021/07/17 07:03:58;;;;;;;11.80;6.25;;;20.00;99.90;;;;;;4983864;28;20492;-66
2021/07/17 07:06:25;;;;;;;7.80;6.47;;;20.00;99.90;;;;;;4983262;28;20073;-64
2021/07/17 07:08:52;;;;;;;8.98;5.68;;;20.00;99.90;;;;;;4982489;28;20148;-65
2021/07/17 07:11:19;;;;;;;6.45;5.38;;;20.10;99.90;;;;;;4978414;28;20046;-68
2021/07/17 07:13:45;;;;;;;8.40;6.07;;;20.20;99.90;;;;;;4987732;28;20046;-65
2021/07/17 07:16:13;;;;;;;9.40;5.68;;;20.20;99.90;;;;;;4987193;28;20084;-68
2021/07/17 07:18:40;;;;;;;5.82;5.15;;;20.20;99.90;;;;;;4987111;28;20053;-66
2021/07/17 07:21:07;;;;;;;8.27;5.78;;;20.20;99.90;;;;;;4985127;28;20066;-65
2021/07/17 07:23:34;;;;;;;8.68;6.47;;;20.30;99.90;;;;;;4985392;28;20137;-70
2021/07/17 07:26:01;;;;;;;6.03;4.80;;;20.50;99.90;;;;;;4987826;28;20046;-64
2021/07/17 07:28:28;;;;;;;10.35;5.63;;;20.50;99.90;;;;;;4979589;28;20054;-64
2021/07/17 07:30:55;;;;;;;5.22;4.78;;;20.50;99.90;;;;;;4986735;28;20038;-66
2021/07/17 07:33:22;;;;;;;8.82;4.63;;;20.40;99.90;;;;;;4982719;28;20047;-68
2021/07/17 07:35:49;;;;;;;9.98;6.85;;;20.40;99.90;;;;;;4986435;28;20042;-73
2021/07/17 07:38:16;;;;;;;5.90;4.97;;;20.50;99.90;;;;;;4984495;28;20068;-66
2021/07/17 07:40:43;;;;;;;6.53;5.70;;;20.60;99.90;;;;;;4982599;28;20050;-72
2021/07/17 07:43:10;;;;;;;6.53;5.47;;;20.70;99.90;;;;;;4984179;28;20761;-67
2021/07/17 07:45:37;;;;;;;8.23;5.03;;;20.80;99.90;;;;;;4984027;28;20066;-64
2021/07/17 07:48:05;;;;;;;4.90;4.47;;;20.80;99.90;;;;;;4979187;28;20093;-65
2021/07/17 07:50:32;;;;;;;6.72;6.03;;;20.80;99.90;;;;;;4984863;28;20049;-67
2021/07/17 07:52:59;;;;;;;6.45;4.68;;;20.80;99.90;;;;;;4981288;28;20093;-64
2021/07/17 07:55:26;;;;;;;6.22;4.68;;;20.80;99.90;;;;;;4984030;28;20061;-65
2021/07/17 07:57:53;;;;;;;7.80;4.53;;;20.80;99.90;;;;;;4984663;28;20038;-67
2021/07/17 08:00:20;;;;;;;7.97;4.60;;;20.80;99.90;;;;;;4985292;28;20046;-66
2021/07/17 08:02:52;;;;;;;8.45;5.03;;;20.80;99.90;;;;;;4987325;28;20408;-67
2021/07/17 08:05:19;;;;;;;5.60;4.78;;;20.80;99.90;;;;;;4983312;28;20873;-64
2021/07/17 08:07:46;;;;;;;8.38;4.88;;;21.00;99.90;;;;;;4984229;28;20701;-66
2021/07/17 08:10:13;;;;;;;8.50;5.90;;;20.90;99.90;;;;;;4986935;28;20142;-67
2021/07/17 08:12:40;;;;;;;8.18;4.68;;;20.80;99.90;;;;;;4984341;28;20050;-68
2021/07/17 08:15:08;;;;;;;5.68;4.70;;;20.80;99.90;;;;;;4983597;28;20077;-70
2021/07/17 08:17:36;;;;;;;5.07;4.57;;;20.80;99.90;;;;;;4980989;28;20058;-67
2021/07/17 08:20:09;;;;;;;5.82;4.50;;;20.80;99.90;;;;;;4981978;28;20509;-67
2021/07/17 08:22:37;;;;;;;7.57;4.60;;;20.80;99.90;;;;;;4980921;28;20046;-66
2021/07/17 08:25:05;;;;;;;7.30;5.47;;;20.90;99.90;;;;;;4982808;28;20046;-68
2021/07/17 08:27:32;;;;;;;9.43;5.25;;;20.80;99.90;;;;;;4981823;28;20046;-66
2021/07/17 08:30:00;;;;;;;6.00;5.22;;;20.80;99.90;;;;;;4980978;28;20134;-65
2021/07/17 08:32:27;;;;;;;9.23;4.90;;;20.90;99.90;;;;;;4982114;28;20038;-67
2021/07/17 08:34:54;;;;;;;6.90;5.63;;;20.90;99.90;;;;;;4986440;28;20727;-66
2021/07/17 08:37:21;;;;;;;6.05;5.18;;;20.90;99.90;;;;;;4982717;28;20065;-67
2021/07/17 08:39:48;;;;;;;5.80;4.45;;;21.00;99.90;;;;;;4981292;28;20200;-68
2021/07/17 08:42:17;;;;;;;7.55;5.13;;;21.10;99.90;;;;;;4982232;28;20481;-64
2021/07/17 08:44:48;;;;;;;8.05;5.10;;;21.10;99.90;;;;;;4980033;28;20049;-67
2021/07/17 08:47:20;;;;;;;7.13;5.47;;;21.30;99.90;;;;;;4979284;28;20138;-72
2021/07/17 08:49:47;;;;;;;7.68;5.65;;;21.40;99.90;;;;;;4980266;28;20046;-65
2021/07/17 08:52:14;;;;;;;6.18;5.57;;;21.50;99.90;;;;;;4982105;28;20050;-68
2021/07/17 08:54:42;;;;;;;6.65;5.30;;;21.40;99.90;;;;;;4979727;28;20069;-68
2021/07/17 08:57:12;;;;;;;11.25;5.60;;;21.30;99.90;;;;;;4979929;28;20500;-66
2021/07/17 08:59:40;;;;;;;12.63;6.78;;;21.20;99.90;;;;;;4977340;28;20106;-69
2021/07/17 09:02:07;;;;;;;10.48;5.55;;;21.20;99.90;;;;;;4980943;28;20054;-67
2021/07/17 09:04:36;;;;;;;6.60;5.90;;;21.10;99.90;;;;;;4980735;28;20079;-67
2021/07/17 09:07:03;;;;;;;7.82;6.45;;;21.10;99.90;;;;;;4981855;28;20049;-65
2021/07/17 09:09:32;;;;;;;6.07;5.57;;;21.10;99.90;;;;;;4981135;28;20065;-69
2021/07/17 09:12:00;;;;;;;8.57;6.22;;;21.20;99.90;;;;;;4984433;28;20507;-67
2021/07/17 09:14:44;;;;;;;6.72;5.38;;;21.20;99.90;;;;;;4982690;28;20057;-70
2021/07/17 09:17:20;;;;;;;7.88;7.07;;;21.20;99.90;;;;;;4983853;28;20034;-67
2021/07/17 09:19:56;;;;;;;6.70;5.97;;;21.30;99.90;;;;;;4981305;28;20038;-68
2021/07/17 09:22:33;;;;;;;6.68;6.07;;;21.20;99.90;;;;;;4979605;28;20637;-65
2021/07/17 09:25:17;;;;;;;8.40;5.60;;;21.20;99.90;;;;;;4984715;28;20050;-67
2021/07/17 09:27:45;;;;;;;8.82;5.43;;;21.10;99.90;;;;;;4980789;28;20101;-68
2021/07/17 09:30:24;;;;;;;7.78;6.95;;;21.00;99.90;;;;;;4984551;28;20062;-66
2021/07/17 09:32:58;;;;;;;13.65;7.28;;;21.10;99.90;;;;;;4982182;28;20051;-63
2021/07/17 09:35:26;;;;;;;7.68;5.03;;;21.20;99.90;;;;;;4978688;28;20076;-65
2021/07/17 09:37:56;;;;;;;5.68;4.95;;;21.20;99.90;;;;;;4980590;28;20681;-66
2021/07/17 09:40:24;;;;;;;6.97;6.10;;;21.40;99.90;;;;;;4983573;28;20073;-67
2021/07/17 09:42:51;;;;;;;6.68;5.85;;;21.20;99.90;;;;;;4977989;28;20145;-65
2021/07/17 09:45:40;;;;;;;5.97;5.35;;;21.30;99.90;;;;;;4981480;28;20077;-67
2021/07/17 09:48:36;;;;;;;7.18;5.70;;;21.20;99.90;;;;;;4979186;28;20038;-69
2021/07/17 09:51:08;;;;;;;6.15;5.20;;;21.20;99.90;;;;;;4973204;28;20096;-67
2021/07/17 09:53:39;;;;;;;6.22;5.55;;;21.30;99.90;;;;;;4976159;28;20545;-67
2021/07/17 09:56:08;;;;;;;7.35;5.95;;;21.30;99.90;;;;;;4977861;28;20042;-65
2021/07/17 09:58:37;;;;;;;6.97;5.82;;;21.40;99.90;;;;;;4978475;28;20101;-66
2021/07/17 10:01:14;;;;;;;6.72;4.75;;;21.40;99.90;;;;;;4983873;28;20117;-68
2021/07/17 10:03:42;;;;;;;6.53;5.93;;;21.70;99.90;;;;;;4983383;28;20050;-65
2021/07/17 10:06:24;;;;;;;4.90;4.10;;;21.80;99.90;;;;;;4981737;28;20416;-66
2021/07/17 10:08:51;;;;;;;5.10;4.45;;;21.90;99.90;;;;;;4984466;28;20053;-67
2021/07/17 10:11:26;;;;;;;6.43;5.35;;;21.90;99.90;;;;;;4980407;28;20089;-70
2021/07/17 10:13:54;;;;;;;6.40;5.80;;;21.70;99.90;;;;;;4983768;28;20636;-65
2021/07/17 10:16:23;;;;;;;5.13;4.72;;;21.60;99.90;;;;;;4982456;28;20042;-66
2021/07/17 10:18:51;;;;;;;8.45;4.88;;;21.70;99.90;;;;;;4980113;28;20057;-66
2021/07/17 10:21:19;;;;;;;6.03;5.38;;;21.90;99.90;;;;;;4981153;28;20053;-69
2021/07/17 10:23:46;;;;;;;4.60;3.85;;;21.90;99.90;;;;;;4981870;28;20073;-67
2021/07/17 10:26:14;;;;;;;7.28;5.20;;;21.90;99.90;;;;;;4982743;28;20153;-64
2021/07/17 10:28:41;;;;;;;5.63;5.15;;;22.00;99.90;;;;;;4983869;28;20122;-69
2021/07/17 10:31:08;;;;;;;6.13;4.57;;;22.00;99.90;;;;;;4980809;28;20386;-67
2021/07/17 10:33:36;;;;;;;5.80;5.18;;;21.90;99.90;;;;;;4977581;28;20054;-65
2021/07/17 10:36:14;;;;;;;6.10;4.97;;;21.80;99.90;;;;;;4983410;28;20153;-68
2021/07/17 10:38:43;;;;;;;12.98;6.10;;;21.90;99.90;;;;;;4984009;28;20085;-69
2021/07/17 10:41:16;;;;;;;6.88;3.88;;;21.90;99.90;;;;;;4984471;28;20082;-66
2021/07/17 10:43:49;;;;;;;5.35;4.43;;;22.00;99.90;;;;;;4982610;28;20468;-70
2021/07/17 10:46:32;;;;;;;5.30;3.97;;;22.10;99.90;;;;;;4982935;28;20487;-66
2021/07/17 10:49:02;;;;;;;6.80;5.88;;;22.10;99.90;;;;;;4990063;28;20441;-64
2021/07/17 10:51:35;;;;;;;5.10;3.95;;;22.20;99.90;;;;;;4985896;28;20038;-69
2021/07/17 10:54:05;;;;;;;5.82;4.93;;;22.20;99.90;;;;;;4990936;28;20054;-65
2021/07/17 10:56:34;;;;;;;5.53;4.13;;;22.30;99.90;;;;;;4987542;28;20092;-72
2021/07/17 10:59:22;;;;;;;4.90;4.43;;;22.50;99.90;;;;;;4986423;28;20452;-67
2021/07/17 11:01:57;;;;;;;4.87;4.40;;;22.70;99.90;;;;;;4972849;28;20124;-66
2021/07/17 11:04:40;;;;;;;5.75;5.05;;;22.90;99.90;;;;;;4990483;28;20069;-67
2021/07/17 11:07:16;;;;;;;8.55;3.92;;;22.90;99.90;;;;;;4988160;28;20049;-64
2021/07/17 11:10:11;;;;;;;4.80;3.20;;;23.10;99.90;;;;;;4986296;28;23499;-64
2021/07/17 11:12:48;;;;;;;6.82;4.97;;;23.10;99.90;;;;;;4991064;28;20515;-66
2021/07/17 11:15:17;;;;;;;7.18;4.85;;;23.10;99.90;;;;;;4988284;28;20396;-64
2021/07/17 11:17:46;;;;;;;5.68;5.07;;;23.00;99.90;;;;;;4981910;28;20059;-65
2021/07/17 11:20:31;;;;;;;8.43;5.47;;;23.00;99.90;;;;;;4989473;28;20141;-70
2021/07/17 11:23:08;;;;;;;5.13;3.78;;;23.10;99.90;;;;;;4989827;28;20052;-70
2021/07/17 11:25:35;;;;;;;3.97;3.63;;;23.20;99.90;;;;;;4988204;28;20042;-65
2021/07/17 11:28:03;;;;;;;4.55;3.25;;;23.10;99.90;;;;;;4989082;28;20078;-68
2021/07/17 11:30:35;;;;;;;5.70;4.25;;;23.20;99.90;;;;;;4989888;28;20100;-65
2021/07/17 11:33:04;;;;;;;3.75;2.42;;;23.30;99.90;;;;;;4989264;28;20484;-68
2021/07/17 11:35:32;;;;;;;4.07;3.72;;;23.60;99.90;;;;;;4980083;28;20134;-66
2021/07/17 11:38:00;;;;;;;6.35;3.63;;;23.60;99.90;;;;;;4986907;28;20053;-65
2021/07/17 11:40:27;;;;;;;4.63;3.42;;;23.70;99.90;;;;;;4989851;28;20081;-67
2021/07/17 11:43:06;;;;;;;2.88;2.60;;;23.80;99.90;;;;;;4989810;28;20058;-66
2021/07/17 11:45:33;;;;;;;8.40;4.22;;;23.90;99.90;;;;;;4987346;28;20046;-69
2021/07/17 11:48:12;;;;;;;4.22;3.42;;;23.90;99.90;;;;;;4987512;28;20038;-74
2021/07/17 11:50:42;;;;;;;3.58;2.92;;;23.80;99.90;;;;;;4988069;28;20046;-66
2021/07/17 11:53:18;;;;;;;5.57;3.47;;;23.70;99.90;;;;;;4987291;28;20451;-68
2021/07/17 11:56:00;;;;;;;3.80;3.30;;;23.40;99.90;;;;;;4987460;28;20276;-67
2021/07/17 11:58:30;;;;;;;7.55;4.15;;;23.50;99.90;;;;;;4981558;28;20042;-64
2021/07/17 12:01:01;;;;;;;7.00;4.30;;;23.40;99.90;;;;;;4986266;28;20050;-69
2021/07/17 12:03:28;;;;;;;8.45;4.07;;;23.50;99.90;;;;;;4985595;28;20042;-67
2021/07/17 12:05:56;;;;;;;5.28;4.72;;;23.60;99.90;;;;;;4985795;28;20050;-69
2021/07/17 12:08:23;;;;;;;5.68;3.35;;;23.70;99.90;;;;;;4985653;28;20046;-66
2021/07/17 12:10:50;;;;;;;5.80;3.35;;;23.70;99.90;;;;;;4985710;28;20756;-68
2021/07/17 12:13:21;;;;;;;5.50;3.50;;;23.40;99.90;;;;;;4978880;28;20397;-70
2021/07/17 12:15:48;;;;;;;7.60;3.42;;;23.50;99.90;;;;;;4984243;28;20054;-66
2021/07/17 12:18:18;;;;;;;5.93;3.47;;;23.60;99.90;;;;;;4983748;28;20042;-64
2021/07/17 12:20:52;;;;;;;4.07;3.22;;;23.60;99.90;;;;;;4984892;28;20062;-68
2021/07/17 12:23:24;;;;;;;4.35;3.92;;;23.80;99.90;;;;;;4982134;28;20085;-65
2021/07/17 12:26:04;;;;;;;6.30;4.85;;;23.80;99.90;;;;;;4984649;28;20050;-70
2021/07/17 12:28:36;;;;;;;4.60;3.03;;;24.00;99.90;;;;;;4985686;28;20145;-67
2021/07/17 12:31:10;;;;;;;5.47;3.85;;;24.20;99.90;;;;;;4982693;28;20438;-68
2021/07/17 12:33:42;;;;;;;5.65;5.13;;;24.30;99.90;;;;;;4981538;28;20046;-65
2021/07/17 12:36:17;;;;;;;6.57;4.57;;;24.60;99.90;;;;;;4984065;28;21519;-65
2021/07/17 12:38:47;;;;;;;5.75;4.50;;;24.60;99.90;;;;;;4984750;28;20073;-66
2021/07/17 12:41:16;;;;;;;;;;;24.50;99.90;;;;;;4982491;28;20050;-70
2021/07/17 12:43:50;;;;;;;6.57;4.43;;;24.60;99.90;;;;;;4983253;28;20008;-67
2021/07/17 12:46:22;;;;;;;7.13;5.03;;;24.70;99.90;;;;;;4985675;28;20088;-68
2021/07/17 12:49:00;;;;;;;5.15;4.22;;;24.80;99.90;;;;;;4964268;28;20053;-64
2021/07/17 12:51:33;;;;;;;3.63;3.33;;;24.90;99.90;;;;;;4976511;28;20066;-66
2021/07/17 12:54:01;;;;;;;5.15;4.75;;;24.90;99.90;;;;;;4982813;28;20057;-71